Aeroporto :







RITROVATECI SU...

 
LOGIN :

Iscrizione | Disclaimer

   EN    FR    IT 

 









Sommario :    VFR   VFR Marginale   IFR   IFR Intensivo   IFR Molto Intensivo
Visibilità : 
Base nubi : 
>= 8 km
>= 3000ft
5 / 8 km
1000 / 3000 ft
1500m / 5 km
500 / 1000 ft
800 / 1500m
200 / 500 ft
< 800m
< 200 ft
Simboli :   Temporali  Nebbia  Neve Forte  Precipitazioni Forti  Vento > 20 kt







- Altitudine del aeroporto : 234 ft
- Codice IATA : PBG


KPBG - Plattsburgh International

ULTIMO METAR :
  • 251012Z AUTO 00000KT 10SM OVC009 12/11 A3034 RMK AO2 T01170106

METARs OBSOLETI :
  • 250953Z AUTO 00000KT 10SM OVC010 11/10 A3033 RMK AO2 SLP273 T01110100
  • 250926Z AUTO 00000KT 8SM BKN011 10/09 A3033 RMK AO2 T01000094
  • 250853Z AUTO 00000KT 5SM BR CLR 10/09 A3032 RMK AO2 SLP268 T01000094 53004

TAF KPBG
Valido dal 25 a 10 ore il 26 a 06 ore UTC


251019Z 2510/2606 VRB04KT P6SM OVC009
FM251200 12004KT P6SM SCT009
FM251500 11010KT P6SM SKC
FM252300 09003KT P6SM SKC
Nessun NOTAM noto per questo aeroporto.



MetMap, La meteo Aeronautica in un colpo d'occhio ! - Copyright ORBIFLY Dicembre 2007 - Disclaimer

ORBIFLY MET'MAP TEAM :

Programmazione e sviluppo : Alexandra Zaïnal
Concezione e sviluppo : Baudouin d'Aumeries
Co-Programmazione e sviluppo : Marc-Olivier Méhu
Supporto tecnico e logistico : Manuel Goepfert
Aiuto per la traduzione : Arnaldo La Scala

Contatto : metmap@orbifly.com




FONTI E CREDITI :

   NOAA